Terminal Aerodrome Forecast
Issued by NWS

Home | Current Version | Previous Version | Text Only | Print | Product List | Glossary On
Versions: 1 2 3 4 5 6 7 8 9 10 11 12 13
000
FTUS41 KRNK 240540
TAFLWB
TAF
KLWB 240540Z 2406/2506 00000KT P6SM SKC
     FM241500 VRB03KT P6SM SCT150
     FM241800 23005KT P6SM SCT120 BKN250=

USA.gov is the U.S. government's official web portal to all federal, state and local government web resources and services.